sensor_id;sensor_type;location;lat;lon;timestamp;pressure;altitude;pressure_sealevel;temperature;humidity
6829;BME280;17930;48.592;8.868;2024-03-02T00:02:26;95679.34;;;4.41;100.00
6829;BME280;17930;48.592;8.868;2024-03-02T00:04:53;95690.41;;;4.61;100.00
6829;BME280;17930;48.592;8.868;2024-03-02T00:07:21;95680.88;;;4.47;100.00
6829;BME280;17930;48.592;8.868;2024-03-02T00:09:47;95681.81;;;4.86;100.00
6829;BME280;17930;48.592;8.868;2024-03-02T00:12:15;95682.38;;;4.78;100.00
6829;BME280;17930;48.592;8.868;2024-03-02T00:14:42;95685.50;;;4.50;100.00
6829;BME280;17930;48.592;8.868;2024-03-02T00:17:21;95687.59;;;4.38;100.00
6829;BME280;17930;48.592;8.868;2024-03-02T00:19:51;95688.34;;;4.39;100.00
6829;BME280;17930;48.592;8.868;2024-03-02T00:22:18;95684.47;;;4.36;100.00
6829;BME280;17930;48.592;8.868;2024-03-02T00:24:46;95679.31;;;4.46;100.00
6829;BME280;17930;48.592;8.868;2024-03-02T00:27:14;95672.59;;;4.55;100.00
6829;BME280;17930;48.592;8.868;2024-03-02T00:29:41;95673.63;;;4.49;100.00
6829;BME280;17930;48.592;8.868;2024-03-02T00:32:12;95673.66;;;4.44;100.00
6829;BME280;17930;48.592;8.868;2024-03-02T00:34:40;95675.47;;;4.24;100.00
6829;BME280;17930;48.592;8.868;2024-03-02T00:37:07;95670.81;;;4.51;100.00
6829;BME280;17930;48.592;8.868;2024-03-02T00:39:33;95672.59;;;4.65;100.00
6829;BME280;17930;48.592;8.868;2024-03-02T00:42:02;95677.75;;;4.75;100.00
6829;BME280;17930;48.592;8.868;2024-03-02T00:44:29;95674.38;;;4.69;100.00
6829;BME280;17930;48.592;8.868;2024-03-02T00:47:01;95684.19;;;4.57;100.00
6829;BME280;17930;48.592;8.868;2024-03-02T00:49:28;95682.94;;;4.45;100.00
6829;BME280;17930;48.592;8.868;2024-03-02T00:51:55;95677.28;;;4.28;100.00
6829;BME280;17930;48.592;8.868;2024-03-02T00:54:24;95678.31;;;4.12;100.00
6829;BME280;17930;48.592;8.868;2024-03-02T00:56:51;95684.72;;;3.95;100.00
6829;BME280;17930;48.592;8.868;2024-03-02T00:59:22;95679.03;;;3.83;100.00
6829;BME280;17930;48.592;8.868;2024-03-02T01:01:49;95670.03;;;3.86;100.00
6829;BME280;17930;48.592;8.868;2024-03-02T01:04:16;95683.66;;;3.81;100.00
6829;BME280;17930;48.592;8.868;2024-03-02T01:06:42;95684.44;;;3.72;100.00
6829;BME280;17930;48.592;8.868;2024-03-02T01:09:09;95681.34;;;3.75;100.00
6829;BME280;17930;48.592;8.868;2024-03-02T01:11:37;95676.94;;;3.65;100.00
6829;BME280;17930;48.592;8.868;2024-03-02T01:14:04;95682.31;;;3.49;100.00
6829;BME280;17930;48.592;8.868;2024-03-02T01:16:33;95685.38;;;3.41;100.00
6829;BME280;17930;48.592;8.868;2024-03-02T01:18:59;95680.50;;;3.50;100.00
6829;BME280;17930;48.592;8.868;2024-03-02T01:21:26;95680.72;;;3.33;100.00
6829;BME280;17930;48.592;8.868;2024-03-02T01:23:52;95672.47;;;3.31;100.00
6829;BME280;17930;48.592;8.868;2024-03-02T01:26:19;95671.19;;;3.39;100.00
6829;BME280;17930;48.592;8.868;2024-03-02T01:28:45;95673.00;;;3.43;100.00
6829;BME280;17930;48.592;8.868;2024-03-02T01:31:12;95671.97;;;3.29;100.00
6829;BME280;17930;48.592;8.868;2024-03-02T01:33:40;95674.75;;;3.18;100.00
6829;BME280;17930;48.592;8.868;2024-03-02T01:36:07;95676.00;;;3.10;100.00
6829;BME280;17930;48.592;8.868;2024-03-02T01:38:34;95673.31;;;2.91;100.00
6829;BME280;17930;48.592;8.868;2024-03-02T01:41:00;95672.78;;;2.84;100.00
6829;BME280;17930;48.592;8.868;2024-03-02T01:43:27;95662.81;;;2.97;100.00
6829;BME280;17930;48.592;8.868;2024-03-02T01:45:54;95662.81;;;2.97;100.00
6829;BME280;17930;48.592;8.868;2024-03-02T01:48:22;95667.88;;;2.77;100.00
6829;BME280;17930;48.592;8.868;2024-03-02T01:50:50;95665.50;;;2.71;100.00
6829;BME280;17930;48.592;8.868;2024-03-02T01:53:17;95669.78;;;2.55;100.00
6829;BME280;17930;48.592;8.868;2024-03-02T01:55:44;95677.50;;;2.55;100.00
6829;BME280;17930;48.592;8.868;2024-03-02T01:58:10;95667.44;;;2.49;100.00
6829;BME280;17930;48.592;8.868;2024-03-02T02:00:37;95675.97;;;2.54;100.00
6829;BME280;17930;48.592;8.868;2024-03-02T02:03:04;95673.59;;;2.48;100.00
6829;BME280;17930;48.592;8.868;2024-03-02T02:05:32;95669.00;;;2.50;100.00
6829;BME280;17930;48.592;8.868;2024-03-02T02:08:00;95668.38;;;2.38;100.00
6829;BME280;17930;48.592;8.868;2024-03-02T02:10:27;95670.44;;;2.36;100.00
6829;BME280;17930;48.592;8.868;2024-03-02T02:12:54;95657.22;;;2.64;100.00
6829;BME280;17930;48.592;8.868;2024-03-02T02:15:24;95667.13;;;2.41;100.00
6829;BME280;17930;48.592;8.868;2024-03-02T02:17:51;95664.31;;;2.42;100.00
6829;BME280;17930;48.592;8.868;2024-03-02T02:20:18;95660.84;;;2.63;100.00
6829;BME280;17930;48.592;8.868;2024-03-02T02:22:57;95653.19;;;2.78;100.00
6829;BME280;17930;48.592;8.868;2024-03-02T02:25:24;95651.25;;;3.00;100.00
6829;BME280;17930;48.592;8.868;2024-03-02T02:27:50;95655.06;;;2.92;100.00
6829;BME280;17930;48.592;8.868;2024-03-02T02:30:21;95652.13;;;2.74;100.00
6829;BME280;17930;48.592;8.868;2024-03-02T02:32:48;95647.66;;;2.54;100.00
6829;BME280;17930;48.592;8.868;2024-03-02T02:35:14;95645.34;;;2.53;100.00
6829;BME280;17930;48.592;8.868;2024-03-02T02:37:41;95648.41;;;2.50;100.00
6829;BME280;17930;48.592;8.868;2024-03-02T02:40:10;95647.00;;;2.33;100.00
6829;BME280;17930;48.592;8.868;2024-03-02T02:42:38;95647.75;;;2.28;100.00
6829;BME280;17930;48.592;8.868;2024-03-02T02:45:05;95652.06;;;2.18;100.00
6829;BME280;17930;48.592;8.868;2024-03-02T02:47:31;95643.94;;;2.00;100.00
6829;BME280;17930;48.592;8.868;2024-03-02T02:50:01;95651.25;;;1.81;100.00
6829;BME280;17930;48.592;8.868;2024-03-02T02:52:31;95649.19;;;1.83;100.00
6829;BME280;17930;48.592;8.868;2024-03-02T02:54:59;95647.34;;;1.74;100.00
6829;BME280;17930;48.592;8.868;2024-03-02T02:57:27;95658.03;;;1.66;100.00
6829;BME280;17930;48.592;8.868;2024-03-02T02:59:56;95659.31;;;1.95;100.00
6829;BME280;17930;48.592;8.868;2024-03-02T03:02:22;95652.00;;;1.82;100.00
6829;BME280;17930;48.592;8.868;2024-03-02T03:04:49;95651.88;;;1.67;100.00
6829;BME280;17930;48.592;8.868;2024-03-02T03:07:16;95650.84;;;1.68;100.00
6829;BME280;17930;48.592;8.868;2024-03-02T03:09:42;95652.94;;;1.71;100.00
6829;BME280;17930;48.592;8.868;2024-03-02T03:12:09;95651.81;;;1.62;100.00
6829;BME280;17930;48.592;8.868;2024-03-02T03:14:37;95647.66;;;1.56;100.00
6829;BME280;17930;48.592;8.868;2024-03-02T03:17:03;95646.81;;;1.46;100.00
6829;BME280;17930;48.592;8.868;2024-03-02T03:19:32;95643.69;;;1.44;100.00
6829;BME280;17930;48.592;8.868;2024-03-02T03:21:59;95650.06;;;1.41;100.00
6829;BME280;17930;48.592;8.868;2024-03-02T03:24:25;95650.75;;;1.32;100.00
6829;BME280;17930;48.592;8.868;2024-03-02T03:26:52;95658.13;;;1.23;100.00
6829;BME280;17930;48.592;8.868;2024-03-02T03:29:19;95659.19;;;1.27;100.00
6829;BME280;17930;48.592;8.868;2024-03-02T03:31:47;95662.78;;;1.26;100.00
6829;BME280;17930;48.592;8.868;2024-03-02T03:34:13;95650.47;;;1.28;100.00
6829;BME280;17930;48.592;8.868;2024-03-02T03:36:41;95658.59;;;1.20;100.00
6829;BME280;17930;48.592;8.868;2024-03-02T03:39:08;95657.53;;;1.16;100.00
6829;BME280;17930;48.592;8.868;2024-03-02T03:41:35;95654.41;;;1.14;100.00
6829;BME280;17930;48.592;8.868;2024-03-02T03:44:02;95653.16;;;1.17;100.00
6829;BME280;17930;48.592;8.868;2024-03-02T03:46:29;95654.50;;;1.24;100.00
6829;BME280;17930;48.592;8.868;2024-03-02T03:48:57;95649.94;;;1.26;100.00
6829;BME280;17930;48.592;8.868;2024-03-02T03:51:24;95649.50;;;1.34;100.00
6829;BME280;17930;48.592;8.868;2024-03-02T03:53:50;95651.97;;;1.51;100.00
6829;BME280;17930;48.592;8.868;2024-03-02T03:56:17;95657.94;;;1.56;100.00
6829;BME280;17930;48.592;8.868;2024-03-02T03:58:43;95653.69;;;1.40;100.00
6829;BME280;17930;48.592;8.868;2024-03-02T04:01:10;95650.66;;;1.22;100.00
6829;BME280;17930;48.592;8.868;2024-03-02T04:03:37;95654.38;;;1.09;100.00
6829;BME280;17930;48.592;8.868;2024-03-02T04:06:05;95652.75;;;1.03;100.00
6829;BME280;17930;48.592;8.868;2024-03-02T04:08:32;95654.28;;;1.04;100.00
6829;BME280;17930;48.592;8.868;2024-03-02T04:10:59;95649.28;;;1.14;100.00
6829;BME280;17930;48.592;8.868;2024-03-02T04:13:25;95655.38;;;1.08;100.00
6829;BME280;17930;48.592;8.868;2024-03-02T04:15:52;95652.16;;;0.97;100.00
6829;BME280;17930;48.592;8.868;2024-03-02T04:18:19;95652.63;;;0.94;100.00
6829;BME280;17930;48.592;8.868;2024-03-02T04:20:46;95653.72;;;0.98;100.00
6829;BME280;17930;48.592;8.868;2024-03-02T04:23:13;95656.81;;;1.00;100.00
6829;BME280;17930;48.592;8.868;2024-03-02T04:25:40;95662.44;;;0.97;100.00
6829;BME280;17930;48.592;8.868;2024-03-02T04:28:07;95656.22;;;0.93;100.00
6829;BME280;17930;48.592;8.868;2024-03-02T04:30:33;95655.84;;;1.05;100.00
6829;BME280;17930;48.592;8.868;2024-03-02T04:33:00;95657.88;;;1.03;100.00
6829;BME280;17930;48.592;8.868;2024-03-02T04:35:27;95659.41;;;1.04;100.00
6829;BME280;17930;48.592;8.868;2024-03-02T04:37:54;95655.38;;;1.08;100.00
6829;BME280;17930;48.592;8.868;2024-03-02T04:40:22;95659.97;;;1.06;100.00
6829;BME280;17930;48.592;8.868;2024-03-02T04:42:49;95654.84;;;1.06;100.00
6829;BME280;17930;48.592;8.868;2024-03-02T04:45:15;95651.19;;;1.02;100.00
6829;BME280;17930;48.592;8.868;2024-03-02T04:47:42;95650.13;;;0.99;100.00
6829;BME280;17930;48.592;8.868;2024-03-02T04:50:08;95657.56;;;1.00;100.00
6829;BME280;17930;48.592;8.868;2024-03-02T04:52:35;95652.91;;;1.18;100.00
6829;BME280;17930;48.592;8.868;2024-03-02T04:55:03;95654.59;;;1.08;100.00
6829;BME280;17930;48.592;8.868;2024-03-02T04:57:46;95658.19;;;1.07;100.00
6829;BME280;17930;48.592;8.868;2024-03-02T05:00:13;95662.34;;;1.13;100.00
6829;BME280;17930;48.592;8.868;2024-03-02T05:02:40;95671.31;;;1.10;100.00
6829;BME280;17930;48.592;8.868;2024-03-02T05:05:07;95671.50;;;1.04;100.00
6829;BME280;17930;48.592;8.868;2024-03-02T05:07:34;95670.97;;;1.02;100.00
6829;BME280;17930;48.592;8.868;2024-03-02T05:10:00;95663.91;;;0.93;100.00
6829;BME280;17930;48.592;8.868;2024-03-02T05:12:27;95667.97;;;0.89;100.00
6829;BME280;17930;48.592;8.868;2024-03-02T05:15:22;95671.56;;;0.88;100.00
6829;BME280;17930;48.592;8.868;2024-03-02T05:17:49;95670.16;;;0.80;100.00
6829;BME280;17930;48.592;8.868;2024-03-02T05:20:15;95679.72;;;0.85;100.00
6829;BME280;17930;48.592;8.868;2024-03-02T05:22:42;95681.25;;;0.86;100.00
6829;BME280;17930;48.592;8.868;2024-03-02T05:25:09;95690.91;;;0.79;100.00
6829;BME280;17930;48.592;8.868;2024-03-02T05:27:36;95687.75;;;0.72;100.00
6829;BME280;17930;48.592;8.868;2024-03-02T05:30:03;95688.78;;;0.71;100.00
6829;BME280;17930;48.592;8.868;2024-03-02T05:32:33;95689.69;;;0.65;100.00
6829;BME280;17930;48.592;8.868;2024-03-02T05:34:59;95684.25;;;0.78;100.00
6829;BME280;17930;48.592;8.868;2024-03-02T05:37:26;95673.44;;;0.97;100.00
6829;BME280;17930;48.592;8.868;2024-03-02T05:39:53;95681.50;;;1.05;100.00
6829;BME280;17930;48.592;8.868;2024-03-02T05:42:20;95688.13;;;1.01;100.00
6829;BME280;17930;48.592;8.868;2024-03-02T05:44:47;95691.50;;;1.02;100.00
6829;BME280;17930;48.592;8.868;2024-03-02T05:47:13;95691.66;;;0.96;100.00
6829;BME280;17930;48.592;8.868;2024-03-02T05:49:41;95689.16;;;1.01;100.00
6829;BME280;17930;48.592;8.868;2024-03-02T05:52:08;95681.38;;;1.17;100.00
6829;BME280;17930;48.592;8.868;2024-03-02T05:54:36;95679.53;;;1.34;100.00
6829;BME280;17930;48.592;8.868;2024-03-02T05:57:02;95682.81;;;1.77;100.00
6829;BME280;17930;48.592;8.868;2024-03-02T05:59:46;95672.28;;;2.09;100.00
6829;BME280;17930;48.592;8.868;2024-03-02T06:02:13;95679.84;;;1.90;100.00
6829;BME280;17930;48.592;8.868;2024-03-02T06:04:39;95683.47;;;1.67;100.00
6829;BME280;17930;48.592;8.868;2024-03-02T06:07:08;95692.34;;;1.55;100.00
6829;BME280;17930;48.592;8.868;2024-03-02T06:09:34;95687.69;;;1.52;100.00
6829;BME280;17930;48.592;8.868;2024-03-02T06:12:01;95686.03;;;1.41;100.00
6829;BME280;17930;48.592;8.868;2024-03-02T06:14:28;95695.66;;;1.29;100.00
6829;BME280;17930;48.592;8.868;2024-03-02T06:16:55;95693.47;;;1.16;100.00
6829;BME280;17930;48.592;8.868;2024-03-02T06:19:22;95694.09;;;1.07;100.00
6829;BME280;17930;48.592;8.868;2024-03-02T06:21:49;95689.28;;;1.10;100.00
6829;BME280;17930;48.592;8.868;2024-03-02T06:24:17;95697.28;;;1.14;100.00
6829;BME280;17930;48.592;8.868;2024-03-02T06:26:43;95702.66;;;1.12;100.00
6829;BME280;17930;48.592;8.868;2024-03-02T06:29:10;95708.75;;;1.06;100.00
6829;BME280;17930;48.592;8.868;2024-03-02T06:31:37;95701.44;;;0.99;100.00
6829;BME280;17930;48.592;8.868;2024-03-02T06:34:03;95696.19;;;0.89;100.00
6829;BME280;17930;48.592;8.868;2024-03-02T06:36:30;95702.59;;;0.86;100.00
6829;BME280;17930;48.592;8.868;2024-03-02T06:38:57;95704.59;;;0.84;100.00
6829;BME280;17930;48.592;8.868;2024-03-02T06:41:25;95706.44;;;0.89;100.00
6829;BME280;17930;48.592;8.868;2024-03-02T06:43:52;95706.44;;;0.89;100.00
6829;BME280;17930;48.592;8.868;2024-03-02T06:46:24;95708.53;;;0.92;100.00
6829;BME280;17930;48.592;8.868;2024-03-02T06:48:51;95709.09;;;0.94;100.00
6829;BME280;17930;48.592;8.868;2024-03-02T06:51:18;95700.47;;;1.04;100.00
6829;BME280;17930;48.592;8.868;2024-03-02T06:53:44;95698.75;;;1.79;100.00
6829;BME280;17930;48.592;8.868;2024-03-02T06:56:12;95698.16;;;1.98;100.00
6829;BME280;17930;48.592;8.868;2024-03-02T06:58:40;95707.47;;;1.78;100.00
6829;BME280;17930;48.592;8.868;2024-03-02T07:01:09;95704.78;;;1.68;100.00
6829;BME280;17930;48.592;8.868;2024-03-02T07:03:35;95705.09;;;1.98;100.00
6829;BME280;17930;48.592;8.868;2024-03-02T07:06:03;95709.53;;;1.81;100.00
6829;BME280;17930;48.592;8.868;2024-03-02T07:08:30;95706.94;;;1.76;100.00
6829;BME280;17930;48.592;8.868;2024-03-02T07:10:56;95711.09;;;2.08;100.00
6829;BME280;17930;48.592;8.868;2024-03-02T07:13:23;95709.38;;;2.18;100.00
6829;BME280;17930;48.592;8.868;2024-03-02T07:15:51;95713.19;;;2.11;100.00
6829;BME280;17930;48.592;8.868;2024-03-02T07:18:46;95710.16;;;2.19;100.00
6829;BME280;17930;48.592;8.868;2024-03-02T07:21:17;95711.25;;;1.97;100.00
6829;BME280;17930;48.592;8.868;2024-03-02T07:23:43;95715.66;;;1.75;100.00
6829;BME280;17930;48.592;8.868;2024-03-02T07:26:10;95707.94;;;1.75;100.00
6829;BME280;17930;48.592;8.868;2024-03-02T07:28:37;95712.00;;;1.71;100.00
6829;BME280;17930;48.592;8.868;2024-03-02T07:31:05;95703.78;;;1.69;100.00
6829;BME280;17930;48.592;8.868;2024-03-02T07:33:33;95707.28;;;1.84;100.00
6829;BME280;17930;48.592;8.868;2024-03-02T07:36:00;95712.75;;;1.93;100.00
6829;BME280;17930;48.592;8.868;2024-03-02T07:38:28;95712.78;;;1.98;100.00
6829;BME280;17930;48.592;8.868;2024-03-02T07:40:55;95712.66;;;2.40;100.00
6829;BME280;17930;48.592;8.868;2024-03-02T07:43:22;95708.97;;;3.13;100.00
6829;BME280;17930;48.592;8.868;2024-03-02T07:45:48;95701.44;;;3.68;100.00
6829;BME280;17930;48.592;8.868;2024-03-02T07:48:17;95694.72;;;4.96;100.00
6829;BME280;17930;48.592;8.868;2024-03-02T07:50:43;95693.41;;;5.66;100.00
6829;BME280;17930;48.592;8.868;2024-03-02T07:53:10;95697.81;;;6.80;100.00
6829;BME280;17930;48.592;8.868;2024-03-02T07:55:37;95688.03;;;7.23;100.00
6829;BME280;17930;48.592;8.868;2024-03-02T07:58:04;95694.91;;;7.74;100.00
6829;BME280;17930;48.592;8.868;2024-03-02T08:00:30;95700.09;;;7.74;100.00
6829;BME280;17930;48.592;8.868;2024-03-02T08:02:57;95700.03;;;8.34;100.00
6829;BME280;17930;48.592;8.868;2024-03-02T08:05:25;95686.09;;;9.07;100.00
6829;BME280;17930;48.592;8.868;2024-03-02T08:07:52;95696.00;;;9.05;100.00
6829;BME280;17930;48.592;8.868;2024-03-02T08:10:19;95688.31;;;9.27;100.00
6829;BME280;17930;48.592;8.868;2024-03-02T08:12:46;95683.22;;;10.54;100.00
6829;BME280;17930;48.592;8.868;2024-03-02T08:15:13;95666.66;;;10.80;100.00
6829;BME280;17930;48.592;8.868;2024-03-02T08:17:40;95643.41;;;11.39;100.00
6829;BME280;17930;48.592;8.868;2024-03-02T08:20:11;95647.50;;;11.15;100.00
6829;BME280;17930;48.592;8.868;2024-03-02T08:22:39;95649.25;;;11.36;100.00
6829;BME280;17930;48.592;8.868;2024-03-02T08:25:07;95634.06;;;11.00;100.00
6829;BME280;17930;48.592;8.868;2024-03-02T08:27:35;95644.81;;;10.68;100.00
6829;BME280;17930;48.592;8.868;2024-03-02T08:30:01;95637.78;;;11.46;100.00
6829;BME280;17930;48.592;8.868;2024-03-02T08:32:32;95641.38;;;12.42;100.00
6829;BME280;17930;48.592;8.868;2024-03-02T08:34:58;95641.00;;;12.86;100.00
6829;BME280;17930;48.592;8.868;2024-03-02T08:37:25;95634.66;;;13.04;100.00
6829;BME280;17930;48.592;8.868;2024-03-02T08:39:53;95626.81;;;13.04;100.00
6829;BME280;17930;48.592;8.868;2024-03-02T08:42:20;95624.00;;;13.66;100.00
6829;BME280;17930;48.592;8.868;2024-03-02T08:44:48;95624.44;;;13.97;100.00
6829;BME280;17930;48.592;8.868;2024-03-02T08:47:15;95622.03;;;14.77;100.00
6829;BME280;17930;48.592;8.868;2024-03-02T08:49:41;95616.97;;;15.28;100.00
6829;BME280;17930;48.592;8.868;2024-03-02T08:52:08;95612.00;;;14.26;100.00
6829;BME280;17930;48.592;8.868;2024-03-02T08:54:35;95612.63;;;14.43;100.00
6829;BME280;17930;48.592;8.868;2024-03-02T08:57:05;95607.25;;;14.40;100.00
6829;BME280;17930;48.592;8.868;2024-03-02T08:59:33;95609.16;;;14.51;100.00
6829;BME280;17930;48.592;8.868;2024-03-02T09:02:00;95610.63;;;15.29;100.00
6829;BME280;17930;48.592;8.868;2024-03-02T09:04:26;95609.31;;;14.34;100.00
6829;BME280;17930;48.592;8.868;2024-03-02T09:06:54;95605.50;;;14.12;100.00
6829;BME280;17930;48.592;8.868;2024-03-02T09:09:20;95604.56;;;14.48;100.00
6829;BME280;17930;48.592;8.868;2024-03-02T09:11:47;95601.38;;;14.02;100.00
6829;BME280;17930;48.592;8.868;2024-03-02T09:14:15;95603.31;;;14.14;100.00
6829;BME280;17930;48.592;8.868;2024-03-02T09:16:42;95612.03;;;14.70;100.00
6829;BME280;17930;48.592;8.868;2024-03-02T09:19:09;95599.88;;;15.34;100.00
6829;BME280;17930;48.592;8.868;2024-03-02T09:21:36;95591.84;;;16.17;100.00
6829;BME280;17930;48.592;8.868;2024-03-02T09:24:03;95587.44;;;17.06;100.00
6829;BME280;17930;48.592;8.868;2024-03-02T09:26:32;95581.56;;;17.58;100.00
6829;BME280;17930;48.592;8.868;2024-03-02T09:28:58;95583.72;;;17.38;100.00
6829;BME280;17930;48.592;8.868;2024-03-02T09:31:26;95586.75;;;16.36;100.00
6829;BME280;17930;48.592;8.868;2024-03-02T09:33:53;95588.13;;;16.45;100.00
6829;BME280;17930;48.592;8.868;2024-03-02T09:36:20;95590.41;;;16.89;100.00
6829;BME280;17930;48.592;8.868;2024-03-02T09:38:47;95583.47;;;16.81;100.00
6829;BME280;17930;48.592;8.868;2024-03-02T09:41:14;95586.44;;;16.95;100.00
6829;BME280;17930;48.592;8.868;2024-03-02T09:43:41;95587.00;;;16.73;100.00
6829;BME280;17930;48.592;8.868;2024-03-02T09:46:08;95588.47;;;16.86;100.00
6829;BME280;17930;48.592;8.868;2024-03-02T09:48:37;95576.22;;;17.09;100.00
6829;BME280;17930;48.592;8.868;2024-03-02T09:51:04;95581.50;;;16.78;100.00
6829;BME280;17930;48.592;8.868;2024-03-02T09:53:33;95570.09;;;16.74;100.00
6829;BME280;17930;48.592;8.868;2024-03-02T09:56:00;95573.63;;;16.93;100.00
6829;BME280;17930;48.592;8.868;2024-03-02T09:58:26;95566.34;;;17.86;100.00
6829;BME280;17930;48.592;8.868;2024-03-02T10:00:53;95566.78;;;18.26;100.00
6829;BME280;17930;48.592;8.868;2024-03-02T10:03:22;95569.53;;;17.27;100.00
6829;BME280;17930;48.592;8.868;2024-03-02T10:05:50;95568.03;;;18.13;100.00
6829;BME280;17930;48.592;8.868;2024-03-02T10:08:18;95570.31;;;18.93;100.00
6829;BME280;17930;48.592;8.868;2024-03-02T10:10:44;95566.28;;;19.02;100.00
6829;BME280;17930;48.592;8.868;2024-03-02T10:13:12;95556.84;;;20.01;99.65
6829;BME280;17930;48.592;8.868;2024-03-02T10:15:40;95548.72;;;19.36;97.16
6829;BME280;17930;48.592;8.868;2024-03-02T10:18:09;95549.28;;;19.48;98.55
6829;BME280;17930;48.592;8.868;2024-03-02T10:20:37;95552.31;;;19.50;96.75
6829;BME280;17930;48.592;8.868;2024-03-02T10:23:12;95550.69;;;19.68;90.51
6829;BME280;17930;48.592;8.868;2024-03-02T10:25:39;95542.69;;;19.64;92.39
6829;BME280;17930;48.592;8.868;2024-03-02T10:28:06;95542.50;;;19.51;90.84
6829;BME280;17930;48.592;8.868;2024-03-02T10:30:33;95537.75;;;20.18;92.33
6829;BME280;17930;48.592;8.868;2024-03-02T10:33:00;95532.84;;;20.53;89.18
6829;BME280;17930;48.592;8.868;2024-03-02T10:35:28;95521.56;;;21.02;82.93
6829;BME280;17930;48.592;8.868;2024-03-02T10:37:58;95520.31;;;21.36;82.80
6829;BME280;17930;48.592;8.868;2024-03-02T10:40:26;95522.78;;;21.65;79.16
6829;BME280;17930;48.592;8.868;2024-03-02T10:42:54;95527.25;;;20.64;80.87
6829;BME280;17930;48.592;8.868;2024-03-02T10:45:21;95535.97;;;19.15;80.56
6829;BME280;17930;48.592;8.868;2024-03-02T10:47:49;95526.09;;;19.93;84.26
6829;BME280;17930;48.592;8.868;2024-03-02T10:50:17;95524.72;;;21.18;78.67
6829;BME280;17930;48.592;8.868;2024-03-02T10:52:44;95510.78;;;21.31;75.43
6829;BME280;17930;48.592;8.868;2024-03-02T10:55:11;95520.50;;;21.63;75.55
6829;BME280;17930;48.592;8.868;2024-03-02T10:57:45;95505.97;;;22.18;72.96
6829;BME280;17930;48.592;8.868;2024-03-02T11:00:14;95506.94;;;20.75;75.06
6829;BME280;17930;48.592;8.868;2024-03-02T11:02:50;95511.59;;;20.13;78.22
6829;BME280;17930;48.592;8.868;2024-03-02T11:05:23;95504.41;;;20.50;79.38
6829;BME280;17930;48.592;8.868;2024-03-02T11:07:53;95498.28;;;21.32;76.36
6829;BME280;17930;48.592;8.868;2024-03-02T11:10:23;95488.63;;;22.59;72.89
6829;BME280;17930;48.592;8.868;2024-03-02T11:12:56;95491.31;;;23.21;67.46
6829;BME280;17930;48.592;8.868;2024-03-02T11:15:30;95486.56;;;24.05;65.42
6829;BME280;17930;48.592;8.868;2024-03-02T11:17:57;95475.97;;;23.87;63.59
6829;BME280;17930;48.592;8.868;2024-03-02T11:20:25;95475.25;;;23.76;62.38
6829;BME280;17930;48.592;8.868;2024-03-02T11:22:54;95473.00;;;22.47;65.18
6829;BME280;17930;48.592;8.868;2024-03-02T11:25:24;95466.84;;;22.15;65.93
6829;BME280;17930;48.592;8.868;2024-03-02T11:28:03;95460.59;;;21.69;66.60
6829;BME280;17930;48.592;8.868;2024-03-02T11:30:50;95461.25;;;22.75;66.00
6829;BME280;17930;48.592;8.868;2024-03-02T11:33:23;95458.56;;;22.34;66.44
6829;BME280;17930;48.592;8.868;2024-03-02T11:35:57;95461.50;;;22.12;68.78
6829;BME280;17930;48.592;8.868;2024-03-02T11:38:30;95458.34;;;21.75;67.00
6829;BME280;17930;48.592;8.868;2024-03-02T11:40:59;95451.72;;;22.40;64.75
6829;BME280;17930;48.592;8.868;2024-03-02T11:43:29;95448.75;;;23.14;63.71
6829;BME280;17930;48.592;8.868;2024-03-02T11:45:59;95447.19;;;22.51;62.12
6829;BME280;17930;48.592;8.868;2024-03-02T11:48:26;95450.25;;;22.66;62.87
6829;BME280;17930;48.592;8.868;2024-03-02T11:50:53;95435.44;;;23.07;60.97
6829;BME280;17930;48.592;8.868;2024-03-02T11:53:20;95430.72;;;24.95;59.74
6829;BME280;17930;48.592;8.868;2024-03-02T11:55:49;95423.50;;;23.77;59.66
6829;BME280;17930;48.592;8.868;2024-03-02T11:58:15;95428.13;;;23.39;62.24
6829;BME280;17930;48.592;8.868;2024-03-02T12:00:44;95428.38;;;24.57;58.63
6829;BME280;17930;48.592;8.868;2024-03-02T12:03:13;95410.13;;;24.49;58.91
6829;BME280;17930;48.592;8.868;2024-03-02T12:05:40;95406.28;;;25.00;58.37
6829;BME280;17930;48.592;8.868;2024-03-02T12:08:07;95401.69;;;24.61;56.51
6829;BME280;17930;48.592;8.868;2024-03-02T12:10:35;95407.38;;;23.98;56.17
6829;BME280;17930;48.592;8.868;2024-03-02T12:13:04;95399.94;;;24.37;56.89
6829;BME280;17930;48.592;8.868;2024-03-02T12:15:33;95389.50;;;25.40;54.63
6829;BME280;17930;48.592;8.868;2024-03-02T12:18:04;95388.69;;;24.63;54.01
6829;BME280;17930;48.592;8.868;2024-03-02T12:20:33;95391.31;;;25.50;52.97
6829;BME280;17930;48.592;8.868;2024-03-02T12:23:01;95389.47;;;24.02;52.33
6829;BME280;17930;48.592;8.868;2024-03-02T12:25:28;95400.84;;;22.31;53.17
6829;BME280;17930;48.592;8.868;2024-03-02T12:27:57;95390.25;;;21.29;56.53
6829;BME280;17930;48.592;8.868;2024-03-02T12:30:24;95395.97;;;21.41;59.10
6829;BME280;17930;48.592;8.868;2024-03-02T12:32:53;95399.00;;;21.36;60.33
6829;BME280;17930;48.592;8.868;2024-03-02T12:35:21;95387.94;;;22.47;57.37
6829;BME280;17930;48.592;8.868;2024-03-02T12:37:49;95384.88;;;22.93;57.33
6829;BME280;17930;48.592;8.868;2024-03-02T12:40:17;95386.44;;;22.56;56.03
6829;BME280;17930;48.592;8.868;2024-03-02T12:42:45;95382.00;;;21.48;58.27
6829;BME280;17930;48.592;8.868;2024-03-02T12:45:12;95371.59;;;22.34;59.12
6829;BME280;17930;48.592;8.868;2024-03-02T12:47:40;95376.28;;;21.46;58.82
6829;BME280;17930;48.592;8.868;2024-03-02T12:50:08;95368.00;;;21.47;61.50
6829;BME280;17930;48.592;8.868;2024-03-02T12:52:37;95365.72;;;21.60;61.94
6829;BME280;17930;48.592;8.868;2024-03-02T12:55:05;95369.09;;;20.32;60.28
6829;BME280;17930;48.592;8.868;2024-03-02T12:57:33;95376.41;;;19.34;61.89
6829;BME280;17930;48.592;8.868;2024-03-02T13:00:00;95386.09;;;18.97;64.95
6829;BME280;17930;48.592;8.868;2024-03-02T13:02:28;95392.94;;;17.64;67.67
6829;BME280;17930;48.592;8.868;2024-03-02T13:04:57;95380.38;;;16.71;71.51
6829;BME280;17930;48.592;8.868;2024-03-02T13:07:24;95388.75;;;16.57;74.34
6829;BME280;17930;48.592;8.868;2024-03-02T13:09:54;95381.53;;;17.23;75.20
6829;BME280;17930;48.592;8.868;2024-03-02T13:12:21;95383.97;;;17.69;75.13
6829;BME280;17930;48.592;8.868;2024-03-02T13:14:49;95380.06;;;17.82;74.75